Airport View

Enter AWOS ICAO identifier for current METAR.

ex. KFNL

KSEA 261153Z 16004KT 10SM FEW050 SCT080 12/09 A2992 RMK AO2 SLP137 T01220094 10161 20122 53002

26 Jun 2019 12:06

Phone: 206-214-2592

Other Area AWOS: KRNT - KBFI - KTIW - KPWT

TAF KSEA 261139Z 2612/2718 20005KT P6SM FEW050 SCT080 FM262000 24006KT P6SM VCSH BKN060 OVC100 FM262300 28006KT P6SM -SHRA BKN050 OVC080 FM270000 33005KT P6SM -SHRA BKN050 OVC080